sensor_id;sensor_type;location;lat;lon;timestamp;temperature;humidity
48328;DHT22;34136;51.022;7.082;2023-05-19T00:02:41;12.20;1.00
48328;DHT22;34136;51.022;7.082;2023-05-19T00:05:28;12.10;1.00
48328;DHT22;34136;51.022;7.082;2023-05-19T00:08:18;12.10;1.00
48328;DHT22;34136;51.022;7.082;2023-05-19T00:11:05;12.10;1.00
48328;DHT22;34136;51.022;7.082;2023-05-19T00:13:53;12.10;1.00
48328;DHT22;34136;51.022;7.082;2023-05-19T00:16:40;12.10;1.00
48328;DHT22;34136;51.022;7.082;2023-05-19T00:19:26;12.00;1.00
48328;DHT22;34136;51.022;7.082;2023-05-19T00:22:12;11.90;1.00
48328;DHT22;34136;51.022;7.082;2023-05-19T00:24:59;11.90;1.00
48328;DHT22;34136;51.022;7.082;2023-05-19T00:27:45;11.80;1.00
48328;DHT22;34136;51.022;7.082;2023-05-19T00:30:32;11.80;1.00
48328;DHT22;34136;51.022;7.082;2023-05-19T00:33:18;11.70;1.00
48328;DHT22;34136;51.022;7.082;2023-05-19T00:36:04;11.60;1.00
48328;DHT22;34136;51.022;7.082;2023-05-19T00:38:51;11.50;1.00
48328;DHT22;34136;51.022;7.082;2023-05-19T00:41:37;11.40;1.00
48328;DHT22;34136;51.022;7.082;2023-05-19T00:44:23;11.30;1.00
48328;DHT22;34136;51.022;7.082;2023-05-19T00:47:10;11.20;1.00
48328;DHT22;34136;51.022;7.082;2023-05-19T00:49:56;11.20;1.00
48328;DHT22;34136;51.022;7.082;2023-05-19T00:52:43;11.20;1.00
48328;DHT22;34136;51.022;7.082;2023-05-19T00:55:30;11.10;1.00
48328;DHT22;34136;51.022;7.082;2023-05-19T00:58:18;11.00;1.00
48328;DHT22;34136;51.022;7.082;2023-05-19T01:01:05;10.90;1.00
48328;DHT22;34136;51.022;7.082;2023-05-19T01:03:51;10.80;1.00
48328;DHT22;34136;51.022;7.082;2023-05-19T01:06:37;10.80;1.00
48328;DHT22;34136;51.022;7.082;2023-05-19T01:09:24;10.70;1.00
48328;DHT22;34136;51.022;7.082;2023-05-19T01:12:10;10.70;1.00
48328;DHT22;34136;51.022;7.082;2023-05-19T01:14:58;10.50;1.00
48328;DHT22;34136;51.022;7.082;2023-05-19T01:18:07;10.50;1.00
48328;DHT22;34136;51.022;7.082;2023-05-19T01:21:22;10.40;1.00
48328;DHT22;34136;51.022;7.082;2023-05-19T01:33:11;10.10;1.00
48328;DHT22;34136;51.022;7.082;2023-05-19T01:35:59;10.20;1.00
48328;DHT22;34136;51.022;7.082;2023-05-19T01:38:51;10.20;1.00
48328;DHT22;34136;51.022;7.082;2023-05-19T01:41:40;10.20;1.00
48328;DHT22;34136;51.022;7.082;2023-05-19T01:44:28;10.20;1.00
48328;DHT22;34136;51.022;7.082;2023-05-19T01:47:15;10.10;1.00
48328;DHT22;34136;51.022;7.082;2023-05-19T01:50:02;10.00;1.00
48328;DHT22;34136;51.022;7.082;2023-05-19T01:52:49;10.00;1.00
48328;DHT22;34136;51.022;7.082;2023-05-19T01:55:42;10.00;1.00
48328;DHT22;34136;51.022;7.082;2023-05-19T01:58:45;10.00;1.00
48328;DHT22;34136;51.022;7.082;2023-05-19T02:01:50;9.80;1.00
48328;DHT22;34136;51.022;7.082;2023-05-19T02:04:54;9.80;1.00
48328;DHT22;34136;51.022;7.082;2023-05-19T02:07:47;9.80;1.00
48328;DHT22;34136;51.022;7.082;2023-05-19T02:10:40;9.60;1.00
48328;DHT22;34136;51.022;7.082;2023-05-19T02:13:31;9.60;1.00
48328;DHT22;34136;51.022;7.082;2023-05-19T02:16:21;9.50;1.00
48328;DHT22;34136;51.022;7.082;2023-05-19T02:19:30;9.50;1.00
48328;DHT22;34136;51.022;7.082;2023-05-19T02:22:16;9.40;1.00
48328;DHT22;34136;51.022;7.082;2023-05-19T02:25:02;9.30;1.00
48328;DHT22;34136;51.022;7.082;2023-05-19T02:27:53;9.40;1.00
48328;DHT22;34136;51.022;7.082;2023-05-19T02:30:39;9.40;1.00
48328;DHT22;34136;51.022;7.082;2023-05-19T02:33:25;9.30;1.00
48328;DHT22;34136;51.022;7.082;2023-05-19T02:36:12;9.30;1.00
48328;DHT22;34136;51.022;7.082;2023-05-19T02:38:58;9.30;1.00
48328;DHT22;34136;51.022;7.082;2023-05-19T02:41:45;9.20;1.00
48328;DHT22;34136;51.022;7.082;2023-05-19T02:44:31;9.00;1.00
48328;DHT22;34136;51.022;7.082;2023-05-19T02:47:17;9.00;1.00
48328;DHT22;34136;51.022;7.082;2023-05-19T02:50:05;9.00;1.00
48328;DHT22;34136;51.022;7.082;2023-05-19T02:52:51;8.90;1.00
48328;DHT22;34136;51.022;7.082;2023-05-19T02:55:37;8.80;1.00
48328;DHT22;34136;51.022;7.082;2023-05-19T02:58:24;8.80;1.00
48328;DHT22;34136;51.022;7.082;2023-05-19T03:01:10;8.80;1.00
48328;DHT22;34136;51.022;7.082;2023-05-19T03:03:57;8.80;1.00
48328;DHT22;34136;51.022;7.082;2023-05-19T03:06:44;8.70;1.00
48328;DHT22;34136;51.022;7.082;2023-05-19T03:09:30;8.70;1.00
48328;DHT22;34136;51.022;7.082;2023-05-19T03:12:17;8.60;1.00
48328;DHT22;34136;51.022;7.082;2023-05-19T03:15:03;8.50;1.00
48328;DHT22;34136;51.022;7.082;2023-05-19T03:17:50;8.60;1.00
48328;DHT22;34136;51.022;7.082;2023-05-19T03:20:36;8.60;1.00
48328;DHT22;34136;51.022;7.082;2023-05-19T03:23:22;8.60;1.00
48328;DHT22;34136;51.022;7.082;2023-05-19T03:26:09;8.60;1.00
48328;DHT22;34136;51.022;7.082;2023-05-19T03:28:55;8.60;1.00
48328;DHT22;34136;51.022;7.082;2023-05-19T03:31:42;8.60;1.00
48328;DHT22;34136;51.022;7.082;2023-05-19T03:34:28;8.60;1.00
48328;DHT22;34136;51.022;7.082;2023-05-19T03:37:15;8.60;1.00
48328;DHT22;34136;51.022;7.082;2023-05-19T03:40:01;8.60;1.00
48328;DHT22;34136;51.022;7.082;2023-05-19T03:42:49;8.60;1.00
48328;DHT22;34136;51.022;7.082;2023-05-19T03:45:36;8.60;1.00
48328;DHT22;34136;51.022;7.082;2023-05-19T03:48:36;8.60;1.00
48328;DHT22;34136;51.022;7.082;2023-05-19T03:51:52;8.60;1.00
48328;DHT22;34136;51.022;7.082;2023-05-19T03:55:08;8.60;1.00
48328;DHT22;34136;51.022;7.082;2023-05-19T03:57:55;8.40;1.00
48328;DHT22;34136;51.022;7.082;2023-05-19T04:00:41;8.30;1.00
48328;DHT22;34136;51.022;7.082;2023-05-19T04:03:27;8.10;1.00
48328;DHT22;34136;51.022;7.082;2023-05-19T04:06:14;8.20;1.00
48328;DHT22;34136;51.022;7.082;2023-05-19T04:09:01;8.10;1.00
48328;DHT22;34136;51.022;7.082;2023-05-19T04:11:48;8.20;1.00
48328;DHT22;34136;51.022;7.082;2023-05-19T04:14:34;8.30;1.00
48328;DHT22;34136;51.022;7.082;2023-05-19T04:17:22;8.10;1.00
48328;DHT22;34136;51.022;7.082;2023-05-19T04:20:09;8.10;1.00
48328;DHT22;34136;51.022;7.082;2023-05-19T04:22:55;7.90;1.00
48328;DHT22;34136;51.022;7.082;2023-05-19T04:25:42;7.90;1.00
48328;DHT22;34136;51.022;7.082;2023-05-19T04:28:29;8.00;1.00
48328;DHT22;34136;51.022;7.082;2023-05-19T04:31:15;8.10;1.00
48328;DHT22;34136;51.022;7.082;2023-05-19T04:34:02;8.20;1.00
48328;DHT22;34136;51.022;7.082;2023-05-19T04:36:48;8.30;1.00
48328;DHT22;34136;51.022;7.082;2023-05-19T04:39:36;8.40;1.00
48328;DHT22;34136;51.022;7.082;2023-05-19T04:42:22;8.70;1.00
48328;DHT22;34136;51.022;7.082;2023-05-19T04:45:09;8.80;1.00
48328;DHT22;34136;51.022;7.082;2023-05-19T04:47:59;9.00;1.00
48328;DHT22;34136;51.022;7.082;2023-05-19T04:50:46;9.20;1.00
48328;DHT22;34136;51.022;7.082;2023-05-19T04:53:32;9.30;1.00
48328;DHT22;34136;51.022;7.082;2023-05-19T04:56:19;9.50;1.00
48328;DHT22;34136;51.022;7.082;2023-05-19T04:59:05;9.60;1.00
48328;DHT22;34136;51.022;7.082;2023-05-19T05:01:52;9.70;1.00
48328;DHT22;34136;51.022;7.082;2023-05-19T05:04:39;9.80;1.00
48328;DHT22;34136;51.022;7.082;2023-05-19T05:07:25;10.00;1.00
48328;DHT22;34136;51.022;7.082;2023-05-19T05:10:12;10.10;1.00
48328;DHT22;34136;51.022;7.082;2023-05-19T05:13:00;10.10;1.00
48328;DHT22;34136;51.022;7.082;2023-05-19T05:15:47;10.20;1.00
48328;DHT22;34136;51.022;7.082;2023-05-19T05:18:34;10.20;1.00
48328;DHT22;34136;51.022;7.082;2023-05-19T05:21:21;10.30;1.00
48328;DHT22;34136;51.022;7.082;2023-05-19T05:24:08;10.40;1.00
48328;DHT22;34136;51.022;7.082;2023-05-19T05:26:55;10.60;1.00
48328;DHT22;34136;51.022;7.082;2023-05-19T05:29:42;10.60;1.00
48328;DHT22;34136;51.022;7.082;2023-05-19T05:32:29;10.90;1.00
48328;DHT22;34136;51.022;7.082;2023-05-19T05:35:15;11.10;1.00
48328;DHT22;34136;51.022;7.082;2023-05-19T05:38:02;11.30;1.00
48328;DHT22;34136;51.022;7.082;2023-05-19T05:40:49;11.50;1.00
48328;DHT22;34136;51.022;7.082;2023-05-19T05:43:36;11.50;1.00
48328;DHT22;34136;51.022;7.082;2023-05-19T05:46:23;11.70;1.00
48328;DHT22;34136;51.022;7.082;2023-05-19T05:49:29;11.90;1.00
48328;DHT22;34136;51.022;7.082;2023-05-19T05:52:17;12.10;1.00
48328;DHT22;34136;51.022;7.082;2023-05-19T05:55:07;12.40;1.00
48328;DHT22;34136;51.022;7.082;2023-05-19T05:57:54;12.70;1.00
48328;DHT22;34136;51.022;7.082;2023-05-19T06:00:41;12.90;1.00
48328;DHT22;34136;51.022;7.082;2023-05-19T06:03:28;13.10;1.00
48328;DHT22;34136;51.022;7.082;2023-05-19T06:06:17;13.40;1.00
48328;DHT22;34136;51.022;7.082;2023-05-19T06:09:03;13.60;1.00
48328;DHT22;34136;51.022;7.082;2023-05-19T06:11:50;13.80;1.00
48328;DHT22;34136;51.022;7.082;2023-05-19T06:14:36;13.90;1.00
48328;DHT22;34136;51.022;7.082;2023-05-19T06:17:32;13.80;1.00
48328;DHT22;34136;51.022;7.082;2023-05-19T06:20:19;13.90;1.00
48328;DHT22;34136;51.022;7.082;2023-05-19T06:23:05;14.40;1.00
48328;DHT22;34136;51.022;7.082;2023-05-19T06:25:52;14.60;1.00
48328;DHT22;34136;51.022;7.082;2023-05-19T06:28:38;14.70;1.00
48328;DHT22;34136;51.022;7.082;2023-05-19T06:31:25;14.70;1.00
48328;DHT22;34136;51.022;7.082;2023-05-19T06:34:14;15.00;1.00
48328;DHT22;34136;51.022;7.082;2023-05-19T06:37:01;15.20;1.00
48328;DHT22;34136;51.022;7.082;2023-05-19T06:39:51;15.40;1.00
48328;DHT22;34136;51.022;7.082;2023-05-19T06:42:38;15.60;1.00
48328;DHT22;34136;51.022;7.082;2023-05-19T06:45:46;15.50;99.90
48328;DHT22;34136;51.022;7.082;2023-05-19T06:48:33;15.80;99.90
48328;DHT22;34136;51.022;7.082;2023-05-19T06:51:19;15.90;99.90
48328;DHT22;34136;51.022;7.082;2023-05-19T06:54:06;16.20;99.90
48328;DHT22;34136;51.022;7.082;2023-05-19T06:56:53;16.30;99.90
48328;DHT22;34136;51.022;7.082;2023-05-19T06:59:39;16.50;99.90
48328;DHT22;34136;51.022;7.082;2023-05-19T07:02:26;16.60;99.90
48328;DHT22;34136;51.022;7.082;2023-05-19T07:05:12;16.80;99.90
48328;DHT22;34136;51.022;7.082;2023-05-19T07:07:59;16.80;99.90
48328;DHT22;34136;51.022;7.082;2023-05-19T07:10:47;16.90;99.90
48328;DHT22;34136;51.022;7.082;2023-05-19T07:13:36;16.80;99.90
48328;DHT22;34136;51.022;7.082;2023-05-19T07:16:23;17.10;99.90
48328;DHT22;34136;51.022;7.082;2023-05-19T07:19:09;17.20;99.90
48328;DHT22;34136;51.022;7.082;2023-05-19T07:21:56;17.20;99.90
48328;DHT22;34136;51.022;7.082;2023-05-19T07:24:43;17.30;99.90
48328;DHT22;34136;51.022;7.082;2023-05-19T07:27:30;17.70;99.90
48328;DHT22;34136;51.022;7.082;2023-05-19T07:30:17;17.80;99.90
48328;DHT22;34136;51.022;7.082;2023-05-19T07:33:03;17.70;99.90
48328;DHT22;34136;51.022;7.082;2023-05-19T07:35:49;17.60;99.90
48328;DHT22;34136;51.022;7.082;2023-05-19T07:38:35;18.00;99.90
48328;DHT22;34136;51.022;7.082;2023-05-19T07:41:22;18.10;99.90
48328;DHT22;34136;51.022;7.082;2023-05-19T07:44:08;18.20;99.90
48328;DHT22;34136;51.022;7.082;2023-05-19T07:46:54;18.10;99.90
48328;DHT22;34136;51.022;7.082;2023-05-19T07:49:41;18.20;99.90
48328;DHT22;34136;51.022;7.082;2023-05-19T07:52:28;18.10;99.90
48328;DHT22;34136;51.022;7.082;2023-05-19T07:55:14;18.20;99.90
48328;DHT22;34136;51.022;7.082;2023-05-19T07:58:00;18.30;99.90
48328;DHT22;34136;51.022;7.082;2023-05-19T08:00:46;18.30;99.90
48328;DHT22;34136;51.022;7.082;2023-05-19T08:03:33;18.80;99.90
48328;DHT22;34136;51.022;7.082;2023-05-19T08:06:19;19.30;99.90
48328;DHT22;34136;51.022;7.082;2023-05-19T08:09:05;19.40;99.90
48328;DHT22;34136;51.022;7.082;2023-05-19T08:11:52;19.60;99.90
48328;DHT22;34136;51.022;7.082;2023-05-19T08:14:39;19.50;99.90
48328;DHT22;34136;51.022;7.082;2023-05-19T08:17:25;19.90;99.90
48328;DHT22;34136;51.022;7.082;2023-05-19T08:20:11;20.00;99.90
48328;DHT22;34136;51.022;7.082;2023-05-19T08:22:58;20.20;99.90
48328;DHT22;34136;51.022;7.082;2023-05-19T08:25:44;19.90;99.90
48328;DHT22;34136;51.022;7.082;2023-05-19T08:28:31;19.90;99.90
48328;DHT22;34136;51.022;7.082;2023-05-19T08:31:17;20.10;99.90
48328;DHT22;34136;51.022;7.082;2023-05-19T08:34:03;20.50;99.90
48328;DHT22;34136;51.022;7.082;2023-05-19T08:36:50;20.50;99.90
48328;DHT22;34136;51.022;7.082;2023-05-19T08:39:36;20.60;99.90
48328;DHT22;34136;51.022;7.082;2023-05-19T08:42:23;20.80;99.90
48328;DHT22;34136;51.022;7.082;2023-05-19T08:45:09;21.00;99.90
48328;DHT22;34136;51.022;7.082;2023-05-19T08:47:56;20.60;99.90
48328;DHT22;34136;51.022;7.082;2023-05-19T08:50:50;20.80;99.90
48328;DHT22;34136;51.022;7.082;2023-05-19T08:53:40;20.70;99.90
48328;DHT22;34136;51.022;7.082;2023-05-19T08:56:28;20.60;99.90
48328;DHT22;34136;51.022;7.082;2023-05-19T08:59:16;21.10;99.90
48328;DHT22;34136;51.022;7.082;2023-05-19T09:02:04;21.50;99.90
48328;DHT22;34136;51.022;7.082;2023-05-19T09:04:50;21.60;99.90
48328;DHT22;34136;51.022;7.082;2023-05-19T09:07:37;21.00;99.90
48328;DHT22;34136;51.022;7.082;2023-05-19T09:10:24;21.00;99.90
48328;DHT22;34136;51.022;7.082;2023-05-19T09:13:10;21.00;99.90
48328;DHT22;34136;51.022;7.082;2023-05-19T09:15:57;21.00;99.90
48328;DHT22;34136;51.022;7.082;2023-05-19T09:18:54;20.80;99.90
48328;DHT22;34136;51.022;7.082;2023-05-19T09:21:41;21.00;99.90
48328;DHT22;34136;51.022;7.082;2023-05-19T09:24:28;21.60;99.90
48328;DHT22;34136;51.022;7.082;2023-05-19T09:27:14;21.90;99.90
48328;DHT22;34136;51.022;7.082;2023-05-19T09:30:06;22.10;99.90
48328;DHT22;34136;51.022;7.082;2023-05-19T09:33:18;22.30;99.90
48328;DHT22;34136;51.022;7.082;2023-05-19T09:36:05;22.20;99.90
48328;DHT22;34136;51.022;7.082;2023-05-19T09:38:51;22.50;99.90
48328;DHT22;34136;51.022;7.082;2023-05-19T09:41:38;22.50;99.90
48328;DHT22;34136;51.022;7.082;2023-05-19T09:44:25;22.70;99.90
48328;DHT22;34136;51.022;7.082;2023-05-19T09:47:12;22.80;99.90
48328;DHT22;34136;51.022;7.082;2023-05-19T09:49:58;22.80;99.90
48328;DHT22;34136;51.022;7.082;2023-05-19T09:52:45;22.40;99.90
48328;DHT22;34136;51.022;7.082;2023-05-19T09:55:31;22.00;99.90
48328;DHT22;34136;51.022;7.082;2023-05-19T09:58:18;22.20;99.90
48328;DHT22;34136;51.022;7.082;2023-05-19T10:01:05;22.70;99.90
48328;DHT22;34136;51.022;7.082;2023-05-19T10:03:52;22.70;99.90
48328;DHT22;34136;51.022;7.082;2023-05-19T10:06:40;23.20;99.90
48328;DHT22;34136;51.022;7.082;2023-05-19T10:09:27;23.40;99.90
48328;DHT22;34136;51.022;7.082;2023-05-19T10:12:14;23.80;99.90
48328;DHT22;34136;51.022;7.082;2023-05-19T10:15:02;23.50;99.90
48328;DHT22;34136;51.022;7.082;2023-05-19T10:17:49;23.30;99.90
48328;DHT22;34136;51.022;7.082;2023-05-19T10:20:36;22.80;99.90
48328;DHT22;34136;51.022;7.082;2023-05-19T10:23:22;22.40;99.90
48328;DHT22;34136;51.022;7.082;2023-05-19T10:26:09;22.10;99.90
48328;DHT22;34136;51.022;7.082;2023-05-19T10:28:56;22.10;99.90
48328;DHT22;34136;51.022;7.082;2023-05-19T10:31:44;22.50;99.90
48328;DHT22;34136;51.022;7.082;2023-05-19T10:41:40;21.70;99.90
48328;DHT22;34136;51.022;7.082;2023-05-19T10:47:42;22.30;99.90
48328;DHT22;34136;51.022;7.082;2023-05-19T10:50:35;22.10;99.90
48328;DHT22;34136;51.022;7.082;2023-05-19T10:53:21;21.80;99.90
48328;DHT22;34136;51.022;7.082;2023-05-19T10:56:31;21.60;99.90
48328;DHT22;34136;51.022;7.082;2023-05-19T10:59:34;21.80;99.90
48328;DHT22;34136;51.022;7.082;2023-05-19T11:05:28;22.00;99.90
48328;DHT22;34136;51.022;7.082;2023-05-19T11:08:15;22.20;99.90
48328;DHT22;34136;51.022;7.082;2023-05-19T11:11:14;22.10;99.90
48328;DHT22;34136;51.022;7.082;2023-05-19T11:14:01;22.70;99.90
48328;DHT22;34136;51.022;7.082;2023-05-19T11:16:50;23.00;99.90
48328;DHT22;34136;51.022;7.082;2023-05-19T11:19:37;23.10;99.90
48328;DHT22;34136;51.022;7.082;2023-05-19T11:22:27;23.50;99.90
48328;DHT22;34136;51.022;7.082;2023-05-19T11:25:17;23.30;99.90
48328;DHT22;34136;51.022;7.082;2023-05-19T11:28:23;23.20;99.90
48328;DHT22;34136;51.022;7.082;2023-05-19T11:31:10;23.00;99.90
48328;DHT22;34136;51.022;7.082;2023-05-19T11:33:56;22.80;99.90
48328;DHT22;34136;51.022;7.082;2023-05-19T11:36:43;22.80;99.90
48328;DHT22;34136;51.022;7.082;2023-05-19T11:39:31;22.80;99.90
48328;DHT22;34136;51.022;7.082;2023-05-19T11:42:18;22.60;99.90
48328;DHT22;34136;51.022;7.082;2023-05-19T11:45:05;22.50;99.90
48328;DHT22;34136;51.022;7.082;2023-05-19T11:47:53;22.30;99.90
48328;DHT22;34136;51.022;7.082;2023-05-19T11:50:40;22.50;99.90
48328;DHT22;34136;51.022;7.082;2023-05-19T11:53:26;22.60;99.90
48328;DHT22;34136;51.022;7.082;2023-05-19T11:56:13;22.80;99.90
48328;DHT22;34136;51.022;7.082;2023-05-19T11:58:59;23.10;99.90
48328;DHT22;34136;51.022;7.082;2023-05-19T12:01:45;23.00;99.90
48328;DHT22;34136;51.022;7.082;2023-05-19T12:04:31;23.30;99.90
48328;DHT22;34136;51.022;7.082;2023-05-19T12:07:22;23.00;99.90
48328;DHT22;34136;51.022;7.082;2023-05-19T12:10:09;23.00;99.90
48328;DHT22;34136;51.022;7.082;2023-05-19T12:12:58;23.00;99.90
48328;DHT22;34136;51.022;7.082;2023-05-19T12:15:44;23.40;99.90
48328;DHT22;34136;51.022;7.082;2023-05-19T12:18:36;23.70;99.90
48328;DHT22;34136;51.022;7.082;2023-05-19T12:21:22;23.80;99.90
48328;DHT22;34136;51.022;7.082;2023-05-19T12:24:08;23.60;99.90
48328;DHT22;34136;51.022;7.082;2023-05-19T12:27:26;23.80;99.90
48328;DHT22;34136;51.022;7.082;2023-05-19T12:30:12;24.10;99.90
48328;DHT22;34136;51.022;7.082;2023-05-19T12:33:00;23.60;99.90
48328;DHT22;34136;51.022;7.082;2023-05-19T12:35:47;23.50;99.90
48328;DHT22;34136;51.022;7.082;2023-05-19T12:38:33;23.60;99.90
48328;DHT22;34136;51.022;7.082;2023-05-19T12:41:20;23.60;99.90
48328;DHT22;34136;51.022;7.082;2023-05-19T12:44:14;23.30;99.90
48328;DHT22;34136;51.022;7.082;2023-05-19T12:47:03;22.60;99.90
48328;DHT22;34136;51.022;7.082;2023-05-19T12:50:04;22.80;99.90
48328;DHT22;34136;51.022;7.082;2023-05-19T12:52:50;23.20;99.90
48328;DHT22;34136;51.022;7.082;2023-05-19T12:55:38;23.40;99.90
48328;DHT22;34136;51.022;7.082;2023-05-19T12:58:24;23.50;99.90
48328;DHT22;34136;51.022;7.082;2023-05-19T13:01:17;23.40;99.90
48328;DHT22;34136;51.022;7.082;2023-05-19T13:04:04;23.60;99.90
48328;DHT22;34136;51.022;7.082;2023-05-19T13:06:51;23.80;99.90
48328;DHT22;34136;51.022;7.082;2023-05-19T13:09:38;23.50;99.90
48328;DHT22;34136;51.022;7.082;2023-05-19T13:12:24;23.30;99.90
48328;DHT22;34136;51.022;7.082;2023-05-19T13:15:10;23.30;99.90
48328;DHT22;34136;51.022;7.082;2023-05-19T13:17:58;23.20;99.90
48328;DHT22;34136;51.022;7.082;2023-05-19T13:20:45;23.10;99.90
48328;DHT22;34136;51.022;7.082;2023-05-19T13:23:32;23.20;99.90
48328;DHT22;34136;51.022;7.082;2023-05-19T13:26:18;23.30;99.90
48328;DHT22;34136;51.022;7.082;2023-05-19T13:29:05;23.40;99.90
48328;DHT22;34136;51.022;7.082;2023-05-19T13:31:51;23.30;99.90
48328;DHT22;34136;51.022;7.082;2023-05-19T13:34:37;23.50;99.90
48328;DHT22;34136;51.022;7.082;2023-05-19T13:37:24;23.70;99.90
48328;DHT22;34136;51.022;7.082;2023-05-19T13:40:11;24.10;99.90
48328;DHT22;34136;51.022;7.082;2023-05-19T13:42:58;24.40;99.90
48328;DHT22;34136;51.022;7.082;2023-05-19T13:45:44;24.80;99.90
48328;DHT22;34136;51.022;7.082;2023-05-19T13:48:30;25.10;99.90
48328;DHT22;34136;51.022;7.082;2023-05-19T13:51:17;25.20;99.90
48328;DHT22;34136;51.022;7.082;2023-05-19T13:54:03;25.00;99.90
48328;DHT22;34136;51.022;7.082;2023-05-19T13:56:50;24.60;99.90
48328;DHT22;34136;51.022;7.082;2023-05-19T13:59:36;24.40;99.90
48328;DHT22;34136;51.022;7.082;2023-05-19T14:02:23;23.90;99.90
48328;DHT22;34136;51.022;7.082;2023-05-19T14:05:09;24.30;99.90
48328;DHT22;34136;51.022;7.082;2023-05-19T14:07:55;24.50;99.90
48328;DHT22;34136;51.022;7.082;2023-05-19T14:10:42;24.00;99.90
48328;DHT22;34136;51.022;7.082;2023-05-19T14:13:28;23.50;99.90
48328;DHT22;34136;51.022;7.082;2023-05-19T14:16:15;23.40;99.90
48328;DHT22;34136;51.022;7.082;2023-05-19T14:19:02;23.40;99.90
48328;DHT22;34136;51.022;7.082;2023-05-19T14:21:49;23.30;99.90
48328;DHT22;34136;51.022;7.082;2023-05-19T14:24:35;23.30;99.90
48328;DHT22;34136;51.022;7.082;2023-05-19T14:27:22;23.30;99.90
48328;DHT22;34136;51.022;7.082;2023-05-19T14:30:08;23.40;99.90
48328;DHT22;34136;51.022;7.082;2023-05-19T14:32:58;23.30;99.90
48328;DHT22;34136;51.022;7.082;2023-05-19T14:35:46;23.20;99.90
48328;DHT22;34136;51.022;7.082;2023-05-19T14:38:32;23.20;99.90
48328;DHT22;34136;51.022;7.082;2023-05-19T14:41:18;23.10;99.90
48328;DHT22;34136;51.022;7.082;2023-05-19T14:44:05;23.30;99.90
48328;DHT22;34136;51.022;7.082;2023-05-19T14:46:51;23.50;99.90
48328;DHT22;34136;51.022;7.082;2023-05-19T14:49:37;23.60;99.90
48328;DHT22;34136;51.022;7.082;2023-05-19T14:52:24;23.70;99.90
48328;DHT22;34136;51.022;7.082;2023-05-19T14:55:10;23.50;99.90
48328;DHT22;34136;51.022;7.082;2023-05-19T14:57:56;23.30;99.90
48328;DHT22;34136;51.022;7.082;2023-05-19T15:00:43;23.20;99.90
48328;DHT22;34136;51.022;7.082;2023-05-19T15:03:29;23.40;99.90
48328;DHT22;34136;51.022;7.082;2023-05-19T15:06:17;23.50;99.90
48328;DHT22;34136;51.022;7.082;2023-05-19T15:09:03;23.20;99.90
48328;DHT22;34136;51.022;7.082;2023-05-19T15:11:49;23.10;99.90
48328;DHT22;34136;51.022;7.082;2023-05-19T15:14:36;23.20;99.90
48328;DHT22;34136;51.022;7.082;2023-05-19T15:17:21;23.20;99.90
48328;DHT22;34136;51.022;7.082;2023-05-19T15:20:08;23.00;99.90
48328;DHT22;34136;51.022;7.082;2023-05-19T15:22:55;23.00;99.90
48328;DHT22;34136;51.022;7.082;2023-05-19T15:25:41;23.10;99.90
48328;DHT22;34136;51.022;7.082;2023-05-19T15:28:28;23.20;99.90
48328;DHT22;34136;51.022;7.082;2023-05-19T15:31:15;23.20;99.90
48328;DHT22;34136;51.022;7.082;2023-05-19T15:34:01;23.20;99.90
48328;DHT22;34136;51.022;7.082;2023-05-19T15:36:48;22.90;99.90
48328;DHT22;34136;51.022;7.082;2023-05-19T15:39:34;22.50;99.90
48328;DHT22;34136;51.022;7.082;2023-05-19T15:42:20;22.60;99.90
48328;DHT22;34136;51.022;7.082;2023-05-19T15:45:07;22.80;99.90
48328;DHT22;34136;51.022;7.082;2023-05-19T15:47:54;22.80;99.90
48328;DHT22;34136;51.022;7.082;2023-05-19T15:50:40;22.50;99.90
48328;DHT22;34136;51.022;7.082;2023-05-19T15:53:26;22.50;99.90
48328;DHT22;34136;51.022;7.082;2023-05-19T15:56:12;22.10;99.90
48328;DHT22;34136;51.022;7.082;2023-05-19T15:58:59;22.00;99.90
48328;DHT22;34136;51.022;7.082;2023-05-19T16:01:45;22.00;99.90
48328;DHT22;34136;51.022;7.082;2023-05-19T16:04:31;22.10;99.90
48328;DHT22;34136;51.022;7.082;2023-05-19T16:07:18;22.00;99.90
48328;DHT22;34136;51.022;7.082;2023-05-19T16:10:04;22.00;99.90
48328;DHT22;34136;51.022;7.082;2023-05-19T16:12:51;22.00;99.90
48328;DHT22;34136;51.022;7.082;2023-05-19T16:15:37;21.90;99.90
48328;DHT22;34136;51.022;7.082;2023-05-19T16:18:23;21.80;99.90
48328;DHT22;34136;51.022;7.082;2023-05-19T16:21:10;22.00;99.90
48328;DHT22;34136;51.022;7.082;2023-05-19T16:23:56;22.10;99.90
48328;DHT22;34136;51.022;7.082;2023-05-19T16:26:42;22.10;99.90
48328;DHT22;34136;51.022;7.082;2023-05-19T16:29:28;22.20;99.90
48328;DHT22;34136;51.022;7.082;2023-05-19T16:32:14;22.30;99.90
48328;DHT22;34136;51.022;7.082;2023-05-19T16:35:01;22.10;99.90
48328;DHT22;34136;51.022;7.082;2023-05-19T16:37:48;21.90;99.90
48328;DHT22;34136;51.022;7.082;2023-05-19T16:40:35;21.90;99.90
48328;DHT22;34136;51.022;7.082;2023-05-19T16:43:21;21.90;99.90
48328;DHT22;34136;51.022;7.082;2023-05-19T16:46:08;22.00;99.90
48328;DHT22;34136;51.022;7.082;2023-05-19T16:48:55;21.70;99.90
48328;DHT22;34136;51.022;7.082;2023-05-19T16:51:41;21.60;99.90
48328;DHT22;34136;51.022;7.082;2023-05-19T16:54:28;21.60;99.90
48328;DHT22;34136;51.022;7.082;2023-05-19T16:57:14;21.50;99.90
48328;DHT22;34136;51.022;7.082;2023-05-19T17:00:00;21.50;99.90
48328;DHT22;34136;51.022;7.082;2023-05-19T17:02:47;21.50;99.90
48328;DHT22;34136;51.022;7.082;2023-05-19T17:05:33;21.50;99.90
48328;DHT22;34136;51.022;7.082;2023-05-19T17:08:19;21.40;99.90
48328;DHT22;34136;51.022;7.082;2023-05-19T17:11:05;21.20;99.90
48328;DHT22;34136;51.022;7.082;2023-05-19T17:13:52;21.20;99.90
48328;DHT22;34136;51.022;7.082;2023-05-19T17:16:38;21.20;99.90
48328;DHT22;34136;51.022;7.082;2023-05-19T17:19:24;21.10;99.90
48328;DHT22;34136;51.022;7.082;2023-05-19T17:22:10;20.90;99.90
48328;DHT22;34136;51.022;7.082;2023-05-19T17:24:56;20.70;99.90
48328;DHT22;34136;51.022;7.082;2023-05-19T17:27:43;20.50;99.90
48328;DHT22;34136;51.022;7.082;2023-05-19T17:30:29;20.50;99.90
48328;DHT22;34136;51.022;7.082;2023-05-19T17:33:15;20.60;99.90
48328;DHT22;34136;51.022;7.082;2023-05-19T17:36:03;20.60;99.90
48328;DHT22;34136;51.022;7.082;2023-05-19T17:38:49;20.70;99.90
48328;DHT22;34136;51.022;7.082;2023-05-19T17:48:54;20.70;99.90
48328;DHT22;34136;51.022;7.082;2023-05-19T17:51:40;20.60;99.90
48328;DHT22;34136;51.022;7.082;2023-05-19T17:54:27;20.50;99.90
48328;DHT22;34136;51.022;7.082;2023-05-19T17:57:14;20.40;99.90
48328;DHT22;34136;51.022;7.082;2023-05-19T18:00:01;20.40;99.90
48328;DHT22;34136;51.022;7.082;2023-05-19T18:02:51;20.50;99.90
48328;DHT22;34136;51.022;7.082;2023-05-19T18:05:37;20.50;99.90
48328;DHT22;34136;51.022;7.082;2023-05-19T18:08:24;20.30;99.90
48328;DHT22;34136;51.022;7.082;2023-05-19T18:11:11;20.20;99.90
48328;DHT22;34136;51.022;7.082;2023-05-19T18:13:57;20.20;99.90
48328;DHT22;34136;51.022;7.082;2023-05-19T18:16:44;20.20;99.90
48328;DHT22;34136;51.022;7.082;2023-05-19T18:19:30;20.20;99.90
48328;DHT22;34136;51.022;7.082;2023-05-19T18:22:17;20.20;99.90